sensor_id;sensor_type;location;lat;lon;timestamp;P1;durP1;ratioP1;P2;durP2;ratioP2
9924;SDS011;5001;51.674;7.868;2022-11-20T00:01:21;34.53;;;21.10;;
9924;SDS011;5001;51.674;7.868;2022-11-20T00:03:53;39.90;;;22.43;;
9924;SDS011;5001;51.674;7.868;2022-11-20T00:06:21;39.13;;;20.83;;
9924;SDS011;5001;51.674;7.868;2022-11-20T00:08:49;34.17;;;19.23;;
9924;SDS011;5001;51.674;7.868;2022-11-20T00:11:17;30.03;;;18.53;;
9924;SDS011;5001;51.674;7.868;2022-11-20T00:13:46;29.47;;;18.33;;
9924;SDS011;5001;51.674;7.868;2022-11-20T00:16:15;24.70;;;15.87;;
9924;SDS011;5001;51.674;7.868;2022-11-20T00:18:44;27.80;;;17.43;;
9924;SDS011;5001;51.674;7.868;2022-11-20T00:21:12;24.17;;;16.27;;
9924;SDS011;5001;51.674;7.868;2022-11-20T00:23:44;30.60;;;18.93;;
9924;SDS011;5001;51.674;7.868;2022-11-20T00:26:13;31.73;;;17.90;;
9924;SDS011;5001;51.674;7.868;2022-11-20T00:28:41;38.80;;;20.23;;
9924;SDS011;5001;51.674;7.868;2022-11-20T00:31:11;31.83;;;19.60;;
9924;SDS011;5001;51.674;7.868;2022-11-20T00:33:40;33.27;;;19.77;;
9924;SDS011;5001;51.674;7.868;2022-11-20T00:36:09;33.67;;;20.50;;
9924;SDS011;5001;51.674;7.868;2022-11-20T00:38:38;39.10;;;21.57;;
9924;SDS011;5001;51.674;7.868;2022-11-20T00:41:06;36.83;;;20.80;;
9924;SDS011;5001;51.674;7.868;2022-11-20T00:43:35;34.10;;;20.30;;
9924;SDS011;5001;51.674;7.868;2022-11-20T00:46:23;31.30;;;19.27;;
9924;SDS011;5001;51.674;7.868;2022-11-20T00:48:52;32.83;;;18.97;;
9924;SDS011;5001;51.674;7.868;2022-11-20T00:51:19;37.47;;;20.50;;
9924;SDS011;5001;51.674;7.868;2022-11-20T00:53:48;37.60;;;20.73;;
9924;SDS011;5001;51.674;7.868;2022-11-20T00:56:16;35.43;;;20.17;;
9924;SDS011;5001;51.674;7.868;2022-11-20T00:58:45;33.97;;;19.93;;
9924;SDS011;5001;51.674;7.868;2022-11-20T01:03:42;31.67;;;19.27;;
9924;SDS011;5001;51.674;7.868;2022-11-20T01:06:12;32.80;;;19.77;;
9924;SDS011;5001;51.674;7.868;2022-11-20T01:08:42;31.57;;;19.43;;
9924;SDS011;5001;51.674;7.868;2022-11-20T01:11:10;28.93;;;18.73;;
9924;SDS011;5001;51.674;7.868;2022-11-20T01:13:39;29.20;;;18.83;;
9924;SDS011;5001;51.674;7.868;2022-11-20T01:16:27;32.33;;;19.57;;
9924;SDS011;5001;51.674;7.868;2022-11-20T01:19:00;33.47;;;20.03;;
9924;SDS011;5001;51.674;7.868;2022-11-20T01:21:30;35.87;;;21.33;;
9924;SDS011;5001;51.674;7.868;2022-11-20T01:24:00;36.00;;;19.67;;
9924;SDS011;5001;51.674;7.868;2022-11-20T01:26:29;32.83;;;20.70;;
9924;SDS011;5001;51.674;7.868;2022-11-20T01:28:58;30.77;;;18.87;;
9924;SDS011;5001;51.674;7.868;2022-11-20T01:31:27;34.60;;;20.50;;
9924;SDS011;5001;51.674;7.868;2022-11-20T01:34:03;31.37;;;19.90;;
9924;SDS011;5001;51.674;7.868;2022-11-20T01:36:36;34.57;;;20.20;;
9924;SDS011;5001;51.674;7.868;2022-11-20T01:39:04;32.43;;;20.07;;
9924;SDS011;5001;51.674;7.868;2022-11-20T01:41:33;35.70;;;20.20;;
9924;SDS011;5001;51.674;7.868;2022-11-20T01:44:20;33.03;;;20.37;;
9924;SDS011;5001;51.674;7.868;2022-11-20T01:46:59;35.80;;;20.60;;
9924;SDS011;5001;51.674;7.868;2022-11-20T01:49:34;30.13;;;20.30;;
9924;SDS011;5001;51.674;7.868;2022-11-20T01:52:07;32.40;;;20.50;;
9924;SDS011;5001;51.674;7.868;2022-11-20T01:55:07;37.87;;;23.33;;
9924;SDS011;5001;51.674;7.868;2022-11-20T01:57:38;31.93;;;19.93;;
9924;SDS011;5001;51.674;7.868;2022-11-20T02:00:10;31.63;;;20.13;;
9924;SDS011;5001;51.674;7.868;2022-11-20T02:02:50;30.73;;;20.10;;
9924;SDS011;5001;51.674;7.868;2022-11-20T02:05:36;28.47;;;19.47;;
9924;SDS011;5001;51.674;7.868;2022-11-20T02:08:12;31.67;;;19.63;;
9924;SDS011;5001;51.674;7.868;2022-11-20T02:10:40;30.23;;;19.33;;
9924;SDS011;5001;51.674;7.868;2022-11-20T02:13:07;33.03;;;20.53;;
9924;SDS011;5001;51.674;7.868;2022-11-20T02:15:53;30.93;;;20.10;;
9924;SDS011;5001;51.674;7.868;2022-11-20T02:18:20;35.17;;;20.20;;
9924;SDS011;5001;51.674;7.868;2022-11-20T02:20:50;34.00;;;21.17;;
9924;SDS011;5001;51.674;7.868;2022-11-20T02:26:03;33.50;;;20.27;;
9924;SDS011;5001;51.674;7.868;2022-11-20T02:28:33;28.90;;;18.33;;
9924;SDS011;5001;51.674;7.868;2022-11-20T02:31:00;25.17;;;18.10;;
9924;SDS011;5001;51.674;7.868;2022-11-20T02:33:27;27.40;;;17.57;;
9924;SDS011;5001;51.674;7.868;2022-11-20T02:35:54;24.93;;;16.90;;
9924;SDS011;5001;51.674;7.868;2022-11-20T02:38:21;23.43;;;16.10;;
9924;SDS011;5001;51.674;7.868;2022-11-20T02:40:48;24.03;;;16.27;;
9924;SDS011;5001;51.674;7.868;2022-11-20T02:43:20;22.97;;;15.70;;
9924;SDS011;5001;51.674;7.868;2022-11-20T02:45:48;24.47;;;15.73;;
9924;SDS011;5001;51.674;7.868;2022-11-20T02:48:15;22.60;;;14.70;;
9924;SDS011;5001;51.674;7.868;2022-11-20T02:50:42;23.50;;;16.40;;
9924;SDS011;5001;51.674;7.868;2022-11-20T02:53:09;25.23;;;15.73;;
9924;SDS011;5001;51.674;7.868;2022-11-20T02:55:36;22.03;;;16.00;;
9924;SDS011;5001;51.674;7.868;2022-11-20T02:58:03;25.53;;;16.67;;
9924;SDS011;5001;51.674;7.868;2022-11-20T03:00:30;24.93;;;16.33;;
9924;SDS011;5001;51.674;7.868;2022-11-20T03:02:58;26.13;;;15.23;;
9924;SDS011;5001;51.674;7.868;2022-11-20T03:05:25;22.43;;;15.10;;
9924;SDS011;5001;51.674;7.868;2022-11-20T03:07:52;21.60;;;16.13;;
9924;SDS011;5001;51.674;7.868;2022-11-20T03:10:19;22.07;;;14.50;;
9924;SDS011;5001;51.674;7.868;2022-11-20T03:12:46;23.30;;;15.23;;
9924;SDS011;5001;51.674;7.868;2022-11-20T03:15:12;23.27;;;15.43;;
9924;SDS011;5001;51.674;7.868;2022-11-20T03:17:39;21.40;;;15.07;;
9924;SDS011;5001;51.674;7.868;2022-11-20T03:20:07;20.87;;;13.97;;
9924;SDS011;5001;51.674;7.868;2022-11-20T03:22:35;22.23;;;16.13;;
9924;SDS011;5001;51.674;7.868;2022-11-20T03:25:02;19.63;;;15.60;;
9924;SDS011;5001;51.674;7.868;2022-11-20T03:27:33;22.73;;;14.93;;
9924;SDS011;5001;51.674;7.868;2022-11-20T03:30:00;23.80;;;16.40;;
9924;SDS011;5001;51.674;7.868;2022-11-20T03:32:27;22.33;;;14.97;;
9924;SDS011;5001;51.674;7.868;2022-11-20T03:34:54;24.03;;;15.40;;
9924;SDS011;5001;51.674;7.868;2022-11-20T03:37:21;22.07;;;15.37;;
9924;SDS011;5001;51.674;7.868;2022-11-20T03:39:49;22.37;;;14.67;;
9924;SDS011;5001;51.674;7.868;2022-11-20T03:42:16;24.80;;;15.70;;
9924;SDS011;5001;51.674;7.868;2022-11-20T03:45:01;22.43;;;15.47;;
9924;SDS011;5001;51.674;7.868;2022-11-20T03:47:28;24.10;;;15.80;;
9924;SDS011;5001;51.674;7.868;2022-11-20T03:49:55;23.27;;;15.77;;
9924;SDS011;5001;51.674;7.868;2022-11-20T03:52:22;22.50;;;15.67;;
9924;SDS011;5001;51.674;7.868;2022-11-20T03:54:49;22.90;;;15.67;;
9924;SDS011;5001;51.674;7.868;2022-11-20T03:57:16;22.50;;;15.30;;
9924;SDS011;5001;51.674;7.868;2022-11-20T03:59:43;22.87;;;15.60;;
9924;SDS011;5001;51.674;7.868;2022-11-20T04:02:10;21.67;;;15.13;;
9924;SDS011;5001;51.674;7.868;2022-11-20T04:04:37;20.80;;;15.10;;
9924;SDS011;5001;51.674;7.868;2022-11-20T04:07:04;24.13;;;15.57;;
9924;SDS011;5001;51.674;7.868;2022-11-20T04:09:31;22.30;;;15.13;;
9924;SDS011;5001;51.674;7.868;2022-11-20T04:11:58;21.50;;;15.87;;
9924;SDS011;5001;51.674;7.868;2022-11-20T04:14:24;21.70;;;14.87;;
9924;SDS011;5001;51.674;7.868;2022-11-20T04:16:51;21.73;;;15.70;;
9924;SDS011;5001;51.674;7.868;2022-11-20T04:19:18;26.37;;;16.43;;
9924;SDS011;5001;51.674;7.868;2022-11-20T04:21:46;30.20;;;16.53;;
9924;SDS011;5001;51.674;7.868;2022-11-20T04:24:13;25.00;;;16.23;;
9924;SDS011;5001;51.674;7.868;2022-11-20T04:26:40;24.13;;;15.50;;
9924;SDS011;5001;51.674;7.868;2022-11-20T04:29:09;21.83;;;15.63;;
9924;SDS011;5001;51.674;7.868;2022-11-20T04:31:37;24.93;;;15.87;;
9924;SDS011;5001;51.674;7.868;2022-11-20T04:34:05;25.20;;;15.23;;
9924;SDS011;5001;51.674;7.868;2022-11-20T04:36:33;22.10;;;16.17;;
9924;SDS011;5001;51.674;7.868;2022-11-20T04:39:01;23.30;;;16.50;;
9924;SDS011;5001;51.674;7.868;2022-11-20T04:41:31;20.70;;;15.23;;
9924;SDS011;5001;51.674;7.868;2022-11-20T04:44:00;19.93;;;14.20;;
9924;SDS011;5001;51.674;7.868;2022-11-20T04:46:37;23.23;;;15.73;;
9924;SDS011;5001;51.674;7.868;2022-11-20T04:49:06;21.80;;;14.73;;
9924;SDS011;5001;51.674;7.868;2022-11-20T04:51:34;25.27;;;17.43;;
9924;SDS011;5001;51.674;7.868;2022-11-20T04:54:01;21.97;;;15.87;;
9924;SDS011;5001;51.674;7.868;2022-11-20T04:56:28;22.07;;;15.27;;
9924;SDS011;5001;51.674;7.868;2022-11-20T04:58:55;20.20;;;14.57;;
9924;SDS011;5001;51.674;7.868;2022-11-20T05:01:25;22.67;;;14.87;;
9924;SDS011;5001;51.674;7.868;2022-11-20T05:03:54;25.93;;;16.10;;
9924;SDS011;5001;51.674;7.868;2022-11-20T05:06:21;21.97;;;15.83;;
9924;SDS011;5001;51.674;7.868;2022-11-20T05:08:48;24.33;;;15.60;;
9924;SDS011;5001;51.674;7.868;2022-11-20T05:11:17;22.97;;;15.77;;
9924;SDS011;5001;51.674;7.868;2022-11-20T05:13:46;24.13;;;16.53;;
9924;SDS011;5001;51.674;7.868;2022-11-20T05:16:14;24.70;;;16.77;;
9924;SDS011;5001;51.674;7.868;2022-11-20T05:18:43;20.87;;;15.60;;
9924;SDS011;5001;51.674;7.868;2022-11-20T05:21:13;23.17;;;16.43;;
9924;SDS011;5001;51.674;7.868;2022-11-20T05:23:41;21.30;;;15.20;;
9924;SDS011;5001;51.674;7.868;2022-11-20T05:26:12;21.77;;;15.80;;
9924;SDS011;5001;51.674;7.868;2022-11-20T05:28:48;23.33;;;16.37;;
9924;SDS011;5001;51.674;7.868;2022-11-20T05:31:22;26.17;;;16.67;;
9924;SDS011;5001;51.674;7.868;2022-11-20T05:33:54;25.50;;;16.50;;
9924;SDS011;5001;51.674;7.868;2022-11-20T05:36:22;23.60;;;16.07;;
9924;SDS011;5001;51.674;7.868;2022-11-20T05:38:49;23.27;;;16.60;;
9924;SDS011;5001;51.674;7.868;2022-11-20T05:41:20;23.97;;;16.73;;
9924;SDS011;5001;51.674;7.868;2022-11-20T05:43:48;24.67;;;16.40;;
9924;SDS011;5001;51.674;7.868;2022-11-20T05:46:19;25.60;;;17.50;;
9924;SDS011;5001;51.674;7.868;2022-11-20T05:48:54;25.47;;;16.67;;
9924;SDS011;5001;51.674;7.868;2022-11-20T05:51:22;25.83;;;16.37;;
9924;SDS011;5001;51.674;7.868;2022-11-20T05:53:50;23.47;;;16.33;;
9924;SDS011;5001;51.674;7.868;2022-11-20T05:56:17;24.33;;;16.13;;
9924;SDS011;5001;51.674;7.868;2022-11-20T05:58:46;23.17;;;15.90;;
9924;SDS011;5001;51.674;7.868;2022-11-20T06:03:48;23.53;;;16.77;;
9924;SDS011;5001;51.674;7.868;2022-11-20T06:06:17;26.80;;;17.53;;
9924;SDS011;5001;51.674;7.868;2022-11-20T06:08:46;20.90;;;15.40;;
9924;SDS011;5001;51.674;7.868;2022-11-20T06:11:14;21.67;;;16.07;;
9924;SDS011;5001;51.674;7.868;2022-11-20T06:13:44;24.50;;;16.77;;
9924;SDS011;5001;51.674;7.868;2022-11-20T06:16:12;21.33;;;15.50;;
9924;SDS011;5001;51.674;7.868;2022-11-20T06:18:41;22.50;;;15.77;;
9924;SDS011;5001;51.674;7.868;2022-11-20T06:21:09;21.83;;;16.10;;
9924;SDS011;5001;51.674;7.868;2022-11-20T06:23:37;28.87;;;16.60;;
9924;SDS011;5001;51.674;7.868;2022-11-20T06:26:08;21.20;;;15.30;;
9924;SDS011;5001;51.674;7.868;2022-11-20T06:28:37;25.17;;;16.97;;
9924;SDS011;5001;51.674;7.868;2022-11-20T06:31:04;27.83;;;17.90;;
9924;SDS011;5001;51.674;7.868;2022-11-20T06:33:32;33.27;;;20.73;;
9924;SDS011;5001;51.674;7.868;2022-11-20T06:36:00;32.27;;;23.57;;
9924;SDS011;5001;51.674;7.868;2022-11-20T06:38:35;34.40;;;22.53;;
9924;SDS011;5001;51.674;7.868;2022-11-20T06:41:03;32.27;;;21.13;;
9924;SDS011;5001;51.674;7.868;2022-11-20T06:43:30;32.87;;;20.67;;
9924;SDS011;5001;51.674;7.868;2022-11-20T06:45:58;27.30;;;19.30;;
9924;SDS011;5001;51.674;7.868;2022-11-20T06:48:26;31.87;;;21.23;;
9924;SDS011;5001;51.674;7.868;2022-11-20T06:50:53;40.20;;;21.93;;
9924;SDS011;5001;51.674;7.868;2022-11-20T06:53:21;35.83;;;23.67;;
9924;SDS011;5001;51.674;7.868;2022-11-20T06:55:49;36.13;;;23.30;;
9924;SDS011;5001;51.674;7.868;2022-11-20T06:58:16;37.80;;;24.10;;
9924;SDS011;5001;51.674;7.868;2022-11-20T07:00:44;37.93;;;23.37;;
9924;SDS011;5001;51.674;7.868;2022-11-20T07:03:11;38.63;;;25.43;;
9924;SDS011;5001;51.674;7.868;2022-11-20T07:05:39;43.73;;;25.07;;
9924;SDS011;5001;51.674;7.868;2022-11-20T07:08:06;54.33;;;30.63;;
9924;SDS011;5001;51.674;7.868;2022-11-20T07:10:34;57.10;;;29.93;;
9924;SDS011;5001;51.674;7.868;2022-11-20T07:13:01;54.93;;;28.87;;
9924;SDS011;5001;51.674;7.868;2022-11-20T07:15:28;47.73;;;27.80;;
9924;SDS011;5001;51.674;7.868;2022-11-20T07:17:57;63.77;;;32.00;;
9924;SDS011;5001;51.674;7.868;2022-11-20T07:20:25;64.27;;;33.60;;
9924;SDS011;5001;51.674;7.868;2022-11-20T07:22:53;53.40;;;30.90;;
9924;SDS011;5001;51.674;7.868;2022-11-20T07:25:24;45.70;;;26.80;;
9924;SDS011;5001;51.674;7.868;2022-11-20T07:27:52;43.43;;;27.17;;
9924;SDS011;5001;51.674;7.868;2022-11-20T07:30:22;33.37;;;21.37;;
9924;SDS011;5001;51.674;7.868;2022-11-20T07:32:52;35.47;;;23.00;;
9924;SDS011;5001;51.674;7.868;2022-11-20T07:35:20;34.93;;;23.10;;
9924;SDS011;5001;51.674;7.868;2022-11-20T07:37:47;38.27;;;25.70;;
9924;SDS011;5001;51.674;7.868;2022-11-20T07:40:15;37.70;;;24.33;;
9924;SDS011;5001;51.674;7.868;2022-11-20T07:42:49;34.73;;;23.07;;
9924;SDS011;5001;51.674;7.868;2022-11-20T07:45:21;44.87;;;26.80;;
9924;SDS011;5001;51.674;7.868;2022-11-20T07:47:49;40.73;;;24.27;;
9924;SDS011;5001;51.674;7.868;2022-11-20T07:50:17;40.53;;;26.53;;
9924;SDS011;5001;51.674;7.868;2022-11-20T07:52:45;53.63;;;33.70;;
9924;SDS011;5001;51.674;7.868;2022-11-20T07:55:12;57.50;;;32.80;;
9924;SDS011;5001;51.674;7.868;2022-11-20T07:57:39;47.17;;;31.00;;
9924;SDS011;5001;51.674;7.868;2022-11-20T08:00:07;38.63;;;27.40;;
9924;SDS011;5001;51.674;7.868;2022-11-20T08:02:39;38.07;;;25.07;;
9924;SDS011;5001;51.674;7.868;2022-11-20T08:05:07;33.60;;;24.37;;
9924;SDS011;5001;51.674;7.868;2022-11-20T08:07:39;31.03;;;23.00;;
9924;SDS011;5001;51.674;7.868;2022-11-20T08:10:08;28.97;;;21.97;;
9924;SDS011;5001;51.674;7.868;2022-11-20T08:12:36;28.53;;;19.70;;
9924;SDS011;5001;51.674;7.868;2022-11-20T08:15:28;44.30;;;27.50;;
9924;SDS011;5001;51.674;7.868;2022-11-20T08:17:59;29.47;;;20.07;;
9924;SDS011;5001;51.674;7.868;2022-11-20T08:20:50;33.00;;;20.53;;
9924;SDS011;5001;51.674;7.868;2022-11-20T08:23:17;26.73;;;18.73;;
9924;SDS011;5001;51.674;7.868;2022-11-20T08:25:48;27.60;;;19.10;;
9924;SDS011;5001;51.674;7.868;2022-11-20T08:28:16;36.93;;;26.87;;
9924;SDS011;5001;51.674;7.868;2022-11-20T08:30:47;28.77;;;19.67;;
9924;SDS011;5001;51.674;7.868;2022-11-20T08:33:15;34.33;;;20.03;;
9924;SDS011;5001;51.674;7.868;2022-11-20T08:35:43;22.87;;;16.67;;
9924;SDS011;5001;51.674;7.868;2022-11-20T08:38:10;36.80;;;23.17;;
9924;SDS011;5001;51.674;7.868;2022-11-20T08:40:37;23.27;;;17.60;;
9924;SDS011;5001;51.674;7.868;2022-11-20T08:43:04;35.57;;;21.43;;
9924;SDS011;5001;51.674;7.868;2022-11-20T08:45:31;49.53;;;27.00;;
9924;SDS011;5001;51.674;7.868;2022-11-20T08:48:01;39.73;;;22.50;;
9924;SDS011;5001;51.674;7.868;2022-11-20T08:50:29;53.20;;;26.30;;
9924;SDS011;5001;51.674;7.868;2022-11-20T08:53:02;41.57;;;23.90;;
9924;SDS011;5001;51.674;7.868;2022-11-20T08:55:30;41.23;;;23.33;;
9924;SDS011;5001;51.674;7.868;2022-11-20T08:57:57;36.97;;;19.63;;
9924;SDS011;5001;51.674;7.868;2022-11-20T09:00:24;29.23;;;18.93;;
9924;SDS011;5001;51.674;7.868;2022-11-20T09:02:51;38.30;;;21.87;;
9924;SDS011;5001;51.674;7.868;2022-11-20T09:05:18;23.83;;;17.83;;
9924;SDS011;5001;51.674;7.868;2022-11-20T09:07:45;16.03;;;12.50;;
9924;SDS011;5001;51.674;7.868;2022-11-20T09:10:12;14.03;;;11.50;;
9924;SDS011;5001;51.674;7.868;2022-11-20T09:12:49;15.27;;;12.20;;
9924;SDS011;5001;51.674;7.868;2022-11-20T09:15:18;15.70;;;12.17;;
9924;SDS011;5001;51.674;7.868;2022-11-20T09:20:41;15.97;;;13.00;;
9924;SDS011;5001;51.674;7.868;2022-11-20T09:23:09;15.57;;;12.87;;
9924;SDS011;5001;51.674;7.868;2022-11-20T09:25:35;14.23;;;11.53;;
9924;SDS011;5001;51.674;7.868;2022-11-20T09:28:02;12.98;;;11.52;;
9924;SDS011;5001;51.674;7.868;2022-11-20T09:30:29;13.50;;;11.63;;
9924;SDS011;5001;51.674;7.868;2022-11-20T09:32:57;11.60;;;10.38;;
9924;SDS011;5001;51.674;7.868;2022-11-20T09:35:24;12.73;;;11.43;;
9924;SDS011;5001;51.674;7.868;2022-11-20T09:37:51;12.45;;;11.05;;
9924;SDS011;5001;51.674;7.868;2022-11-20T09:40:24;10.55;;;9.20;;
9924;SDS011;5001;51.674;7.868;2022-11-20T09:43:01;10.05;;;8.98;;
9924;SDS011;5001;51.674;7.868;2022-11-20T09:48:29;10.60;;;9.50;;
9924;SDS011;5001;51.674;7.868;2022-11-20T09:51:11;13.43;;;12.02;;
9924;SDS011;5001;51.674;7.868;2022-11-20T09:57:01;12.73;;;10.70;;
9924;SDS011;5001;51.674;7.868;2022-11-20T10:05:22;10.82;;;9.55;;
9924;SDS011;5001;51.674;7.868;2022-11-20T10:13:42;11.15;;;9.65;;
9924;SDS011;5001;51.674;7.868;2022-11-20T10:16:41;10.43;;;9.32;;
9924;SDS011;5001;51.674;7.868;2022-11-20T10:22:28;10.65;;;9.55;;
9924;SDS011;5001;51.674;7.868;2022-11-20T10:25:14;14.48;;;12.88;;
9924;SDS011;5001;51.674;7.868;2022-11-20T10:30:39;13.45;;;11.68;;
9924;SDS011;5001;51.674;7.868;2022-11-20T10:36:08;11.30;;;10.10;;
9924;SDS011;5001;51.674;7.868;2022-11-20T10:38:57;27.55;;;23.40;;
9924;SDS011;5001;51.674;7.868;2022-11-20T10:41:32;35.88;;;31.25;;
9924;SDS011;5001;51.674;7.868;2022-11-20T10:44:09;12.85;;;11.27;;
9924;SDS011;5001;51.674;7.868;2022-11-20T10:47:01;15.27;;;12.10;;
9924;SDS011;5001;51.674;7.868;2022-11-20T10:49:32;12.90;;;11.55;;
9924;SDS011;5001;51.674;7.868;2022-11-20T10:52:07;13.82;;;11.80;;
9924;SDS011;5001;51.674;7.868;2022-11-20T11:00:09;12.98;;;11.63;;
9924;SDS011;5001;51.674;7.868;2022-11-20T11:02:44;14.90;;;12.65;;
9924;SDS011;5001;51.674;7.868;2022-11-20T11:07:49;16.83;;;15.13;;
9924;SDS011;5001;51.674;7.868;2022-11-20T11:10:21;17.52;;;14.38;;
9924;SDS011;5001;51.674;7.868;2022-11-20T11:12:49;18.88;;;16.60;;
9924;SDS011;5001;51.674;7.868;2022-11-20T11:17:53;15.20;;;12.45;;
9924;SDS011;5001;51.674;7.868;2022-11-20T11:20:21;12.60;;;11.25;;
9924;SDS011;5001;51.674;7.868;2022-11-20T11:22:51;13.70;;;11.98;;
9924;SDS011;5001;51.674;7.868;2022-11-20T11:28:03;14.30;;;11.23;;
9924;SDS011;5001;51.674;7.868;2022-11-20T11:30:45;17.83;;;13.23;;
9924;SDS011;5001;51.674;7.868;2022-11-20T11:33:19;13.10;;;11.70;;
9924;SDS011;5001;51.674;7.868;2022-11-20T11:35:55;13.82;;;12.07;;
9924;SDS011;5001;51.674;7.868;2022-11-20T11:38:42;13.00;;;11.45;;
9924;SDS011;5001;51.674;7.868;2022-11-20T11:41:23;14.95;;;11.57;;
9924;SDS011;5001;51.674;7.868;2022-11-20T11:43:55;15.02;;;12.23;;
9924;SDS011;5001;51.674;7.868;2022-11-20T11:46:54;17.25;;;12.35;;
9924;SDS011;5001;51.674;7.868;2022-11-20T11:49:22;13.48;;;12.07;;
9924;SDS011;5001;51.674;7.868;2022-11-20T11:54:53;17.58;;;13.32;;
9924;SDS011;5001;51.674;7.868;2022-11-20T11:57:44;16.47;;;12.13;;
9924;SDS011;5001;51.674;7.868;2022-11-20T12:00:21;15.63;;;12.10;;
9924;SDS011;5001;51.674;7.868;2022-11-20T12:02:53;16.53;;;12.53;;
9924;SDS011;5001;51.674;7.868;2022-11-20T12:05:41;17.43;;;13.57;;
9924;SDS011;5001;51.674;7.868;2022-11-20T12:11:11;19.80;;;15.37;;
9924;SDS011;5001;51.674;7.868;2022-11-20T12:13:58;17.60;;;14.63;;
9924;SDS011;5001;51.674;7.868;2022-11-20T12:16:41;20.47;;;14.87;;
9924;SDS011;5001;51.674;7.868;2022-11-20T12:19:10;19.57;;;15.27;;
9924;SDS011;5001;51.674;7.868;2022-11-20T12:24:39;21.90;;;16.63;;
9924;SDS011;5001;51.674;7.868;2022-11-20T12:30:11;23.47;;;15.97;;
9924;SDS011;5001;51.674;7.868;2022-11-20T12:40:53;30.53;;;20.73;;
9924;SDS011;5001;51.674;7.868;2022-11-20T12:43:29;26.83;;;18.90;;
9924;SDS011;5001;51.674;7.868;2022-11-20T13:08:24;29.80;;;24.13;;
9924;SDS011;5001;51.674;7.868;2022-11-20T13:10:56;24.93;;;17.83;;
9924;SDS011;5001;51.674;7.868;2022-11-20T13:16:22;22.33;;;16.00;;
9924;SDS011;5001;51.674;7.868;2022-11-20T13:18:50;21.10;;;15.80;;
9924;SDS011;5001;51.674;7.868;2022-11-20T13:21:21;23.90;;;17.47;;
9924;SDS011;5001;51.674;7.868;2022-11-20T13:24:05;21.13;;;15.50;;
9924;SDS011;5001;51.674;7.868;2022-11-20T13:26:33;21.27;;;15.37;;
9924;SDS011;5001;51.674;7.868;2022-11-20T13:29:16;21.47;;;14.17;;
9924;SDS011;5001;51.674;7.868;2022-11-20T13:31:47;21.93;;;17.30;;
9924;SDS011;5001;51.674;7.868;2022-11-20T13:34:25;22.77;;;16.40;;
9924;SDS011;5001;51.674;7.868;2022-11-20T13:36:54;22.40;;;15.70;;
9924;SDS011;5001;51.674;7.868;2022-11-20T13:39:24;22.90;;;16.03;;
9924;SDS011;5001;51.674;7.868;2022-11-20T13:41:56;22.50;;;15.93;;
9924;SDS011;5001;51.674;7.868;2022-11-20T13:47:04;23.37;;;17.27;;
9924;SDS011;5001;51.674;7.868;2022-11-20T13:49:49;25.47;;;16.97;;
9924;SDS011;5001;51.674;7.868;2022-11-20T13:58:04;39.67;;;28.03;;
9924;SDS011;5001;51.674;7.868;2022-11-20T14:00:48;34.47;;;25.37;;
9924;SDS011;5001;51.674;7.868;2022-11-20T14:03:21;30.67;;;22.90;;
9924;SDS011;5001;51.674;7.868;2022-11-20T14:06:23;29.20;;;20.63;;
9924;SDS011;5001;51.674;7.868;2022-11-20T14:08:58;29.27;;;21.13;;
9924;SDS011;5001;51.674;7.868;2022-11-20T14:11:26;30.23;;;21.07;;
9924;SDS011;5001;51.674;7.868;2022-11-20T14:13:56;38.00;;;21.47;;
9924;SDS011;5001;51.674;7.868;2022-11-20T14:16:24;30.23;;;20.83;;
9924;SDS011;5001;51.674;7.868;2022-11-20T14:18:52;25.20;;;18.17;;
9924;SDS011;5001;51.674;7.868;2022-11-20T14:21:26;28.77;;;20.33;;
9924;SDS011;5001;51.674;7.868;2022-11-20T14:24:05;31.17;;;20.67;;
9924;SDS011;5001;51.674;7.868;2022-11-20T14:26:33;27.77;;;19.73;;
9924;SDS011;5001;51.674;7.868;2022-11-20T14:29:00;25.63;;;18.30;;
9924;SDS011;5001;51.674;7.868;2022-11-20T14:31:27;28.30;;;18.77;;
9924;SDS011;5001;51.674;7.868;2022-11-20T14:33:54;27.10;;;18.50;;
9924;SDS011;5001;51.674;7.868;2022-11-20T14:36:24;29.17;;;20.40;;
9924;SDS011;5001;51.674;7.868;2022-11-20T14:38:52;26.73;;;18.77;;
9924;SDS011;5001;51.674;7.868;2022-11-20T14:41:20;31.73;;;19.43;;
9924;SDS011;5001;51.674;7.868;2022-11-20T14:43:58;27.07;;;18.60;;
9924;SDS011;5001;51.674;7.868;2022-11-20T14:46:28;28.40;;;20.00;;
9924;SDS011;5001;51.674;7.868;2022-11-20T14:49:00;34.37;;;22.53;;
9924;SDS011;5001;51.674;7.868;2022-11-20T14:51:37;29.47;;;18.63;;
9924;SDS011;5001;51.674;7.868;2022-11-20T14:54:18;25.60;;;17.67;;
9924;SDS011;5001;51.674;7.868;2022-11-20T14:59:25;41.17;;;22.03;;
9924;SDS011;5001;51.674;7.868;2022-11-20T15:02:02;33.73;;;19.97;;
9924;SDS011;5001;51.674;7.868;2022-11-20T15:04:29;25.87;;;17.43;;
9924;SDS011;5001;51.674;7.868;2022-11-20T15:06:57;28.93;;;17.93;;
9924;SDS011;5001;51.674;7.868;2022-11-20T15:09:26;25.53;;;17.20;;
9924;SDS011;5001;51.674;7.868;2022-11-20T15:14:24;32.80;;;19.23;;
9924;SDS011;5001;51.674;7.868;2022-11-20T15:16:53;31.90;;;18.47;;
9924;SDS011;5001;51.674;7.868;2022-11-20T15:19:24;35.73;;;20.63;;
9924;SDS011;5001;51.674;7.868;2022-11-20T15:21:53;37.50;;;21.30;;
9924;SDS011;5001;51.674;7.868;2022-11-20T15:24:19;62.63;;;25.87;;
9924;SDS011;5001;51.674;7.868;2022-11-20T15:26:47;43.90;;;22.57;;
9924;SDS011;5001;51.674;7.868;2022-11-20T15:29:15;29.77;;;18.57;;
9924;SDS011;5001;51.674;7.868;2022-11-20T15:31:47;45.07;;;21.20;;
9924;SDS011;5001;51.674;7.868;2022-11-20T15:34:14;49.27;;;22.47;;
9924;SDS011;5001;51.674;7.868;2022-11-20T15:36:42;57.03;;;25.27;;
9924;SDS011;5001;51.674;7.868;2022-11-20T15:39:09;55.93;;;24.17;;
9924;SDS011;5001;51.674;7.868;2022-11-20T15:41:38;30.03;;;19.17;;
9924;SDS011;5001;51.674;7.868;2022-11-20T15:44:05;37.97;;;24.10;;
9924;SDS011;5001;51.674;7.868;2022-11-20T15:46:33;31.10;;;21.13;;
9924;SDS011;5001;51.674;7.868;2022-11-20T15:49:05;27.00;;;17.97;;
9924;SDS011;5001;51.674;7.868;2022-11-20T15:51:37;28.53;;;18.77;;
9924;SDS011;5001;51.674;7.868;2022-11-20T15:56:39;29.33;;;18.33;;
9924;SDS011;5001;51.674;7.868;2022-11-20T15:59:06;25.47;;;18.73;;
9924;SDS011;5001;51.674;7.868;2022-11-20T16:01:33;28.03;;;18.50;;
9924;SDS011;5001;51.674;7.868;2022-11-20T16:04:01;32.53;;;18.57;;
9924;SDS011;5001;51.674;7.868;2022-11-20T16:06:28;28.73;;;18.33;;
9924;SDS011;5001;51.674;7.868;2022-11-20T16:08:55;27.30;;;19.03;;
9924;SDS011;5001;51.674;7.868;2022-11-20T16:11:22;26.33;;;17.13;;
9924;SDS011;5001;51.674;7.868;2022-11-20T16:13:49;25.17;;;17.37;;
9924;SDS011;5001;51.674;7.868;2022-11-20T16:16:35;26.73;;;18.10;;
9924;SDS011;5001;51.674;7.868;2022-11-20T16:19:03;27.27;;;18.27;;
9924;SDS011;5001;51.674;7.868;2022-11-20T16:21:31;25.87;;;17.53;;
9924;SDS011;5001;51.674;7.868;2022-11-20T16:23:59;42.07;;;29.33;;
9924;SDS011;5001;51.674;7.868;2022-11-20T16:26:27;28.97;;;19.23;;
9924;SDS011;5001;51.674;7.868;2022-11-20T16:28:54;31.63;;;19.47;;
9924;SDS011;5001;51.674;7.868;2022-11-20T16:31:22;35.53;;;21.60;;
9924;SDS011;5001;51.674;7.868;2022-11-20T16:33:49;30.73;;;19.90;;
9924;SDS011;5001;51.674;7.868;2022-11-20T16:36:21;31.83;;;19.33;;
9924;SDS011;5001;51.674;7.868;2022-11-20T16:38:59;30.70;;;20.27;;
9924;SDS011;5001;51.674;7.868;2022-11-20T16:41:29;30.43;;;19.17;;
9924;SDS011;5001;51.674;7.868;2022-11-20T16:43:58;31.30;;;19.80;;
9924;SDS011;5001;51.674;7.868;2022-11-20T16:46:28;29.13;;;19.23;;
9924;SDS011;5001;51.674;7.868;2022-11-20T16:48:57;33.73;;;20.27;;
9924;SDS011;5001;51.674;7.868;2022-11-20T16:51:29;34.77;;;21.23;;
9924;SDS011;5001;51.674;7.868;2022-11-20T16:54:02;36.10;;;22.03;;
9924;SDS011;5001;51.674;7.868;2022-11-20T16:56:30;39.37;;;24.00;;
9924;SDS011;5001;51.674;7.868;2022-11-20T16:58:58;39.77;;;23.80;;
9924;SDS011;5001;51.674;7.868;2022-11-20T17:01:26;39.87;;;24.17;;